Wilson Algeciras — 9HA2471 — position and weather

sailwx.info

Track history (hours):
 
Tides and Currents Weather Stations Pressure Air Temp Water Temp Dewpoint Dewpoint Depression Visibility Wind Speed Wind Dir Waves Ship Positions

Wilson Algeciras

Last reported at 2016-May-06 18:33 UTC. Time now 2016-May-06 18:45 UTC.
Position N 48°21' W 006°13'.

Length 88 m; draft 5.3 m.

Type: Ship. MMSI: 248689000.

Date/timePositionNaut miles runAvg speedWind from/ knotsBaromVisibWave heightAir tempDewpointWater temp
2016-May-06 18:33N 48°21' W 006°13'10 9.5
2016-May-06 17:33N 48°29' W 006°06'9 8.8
2016-May-06 16:33N 48°37' W 005°59'8 7.9
2016-May-06 15:33N 48°44' W 005°54'7 7.3
2016-May-06 14:33N 48°50' W 005°48'7 7.3
2016-May-06 13:33N 48°55' W 005°40'8 8.4
2016-May-06 12:33N 48°60' W 005°29'9 9.4
2016-May-06 11:33N 49°04' W 005°17'1410.9
2016-May-06 10:16N 49°11' W 004°58'811.5
2016-May-06 09:33N 49°16' W 004°48'1111.2
2016-May-06 08:33N 49°22' W 004°33'1010.4
2016-May-06 07:33N 49°27' W 004°19'9 9.2
2016-May-06 06:33N 49°32' W 004°07'8 8.1
2016-May-06 05:33N 49°36' W 003°57'8 7.6
2016-May-06 04:26N 49°40' W 003°45'7 7.7
2016-May-06 03:33N 49°44' W 003°36'9 8.7
2016-May-06 02:33N 49°48' W 003°25'1210.4
2016-May-06 01:25N 49°55' W 003°09'1012.0
2016-May-06 00:33N 49°60' W 002°56'1212.4
2016-May-05 23:33N 50°03' W 002°37'1211.5
2016-May-05 22:33N 50°07' W 002°20'10 9.8
2016-May-05 21:33N 50°09' W 002°05'8 7.8
2016-May-05 20:33N 50°11' W 001°53'6 6.5
2016-May-05 19:33N 50°13' W 001°44'6 5.9
2016-May-05 18:33N 50°15' W 001°35'6 6.1
2016-May-05 17:33N 50°16' W 001°25'8 7.7
2016-May-05 16:33N 50°18' W 001°14'1010.0
2016-May-05 15:33N 50°21' W 000°59'1311.9
2016-May-05 14:28N 50°24' W 000°39'1112.3
2016-May-05 13:33N 50°28' W 000°22'1211.8
2016-May-05 12:33N 50°31' W 000°04'1111.2
2016-May-05 11:33N 50°34' E 000°13'1010.3
2016-May-05 10:33N 50°37' E 000°28'28 8.8
2016-May-05 07:24N 50°52' E 001°04'910.2
2016-May-05 06:33N 50°58' E 001°15'1212.1
2016-May-05 05:34N 51°05' E 001°30'1212.4
2016-May-05 04:33N 51°13' E 001°45'1110.5
2016-May-05 03:33N 51°21' E 001°56'8 8.2
2016-May-05 02:33N 51°23' E 002°09'9 9.3
2016-May-05 01:33N 51°22' E 002°23'9 8.8
2016-May-05 00:33N 51°23' E 002°37'8 8.1
2016-May-04 23:33N 51°22' E 002°50'9 8.2
2016-May-04 22:31N 51°22' E 003°04'7 7.2
2016-May-04 21:33N 51°24' E 003°15'8 8.1
2016-May-04 20:33N 51°25' E 003°28'8 8.1
2016-May-04 19:34N 51°25' E 003°41'9 8.7
2016-May-04 18:33N 51°22' E 003°54'6 5.9
2016-May-04 17:33N 51°23' E 004°03'9 8.9
2016-May-04 16:33N 51°20' E 004°16'4 3.6
2016-May-04 15:33N 51°17' E 004°20'1 1.2
2016-May-04 14:32N 51°16' E 004°22'0 0.0
2016-May-04 13:32N 51°16' E 004°22'0 0.0
2016-May-04 12:29N 51°16' E 004°22'0 0.0
2016-May-04 11:32N 51°16' E 004°22'0 0.0
2016-May-04 10:33N 51°16' E 004°22'0 0.0
2016-May-04 09:33N 51°16' E 004°22'0 0.0
2016-May-04 08:33N 51°16' E 004°22'0 0.0
2016-May-04 07:33N 51°16' E 004°22'0 0.0
2016-May-04 06:33N 51°16' E 004°22'0 0.0
2016-May-04 05:33N 51°16' E 004°22'0 0.0
2016-May-04 04:33N 51°16' E 004°22'0 0.0
2016-May-04 03:33N 51°16' E 004°22'0 0.0
2016-May-04 02:33N 51°16' E 004°22'0 0.0
2016-May-04 01:33N 51°16' E 004°22'0 0.0
2016-May-04 00:33N 51°16' E 004°22'0 0.0
2016-May-03 23:33N 51°16' E 004°22'0 0.0
2016-May-03 22:33N 51°16' E 004°22'0 0.0
2016-May-03 21:33N 51°16' E 004°22'1 1.1
2016-May-03 20:34N 51°17' E 004°20'3 2.7
2016-May-03 19:33N 51°18' E 004°17'8 7.9
2016-May-03 18:33N 51°22' E 004°06'6 5.8
2016-May-03 17:34N 51°23' E 003°56'5 5.4
2016-May-03 16:34N 51°20' E 003°49'3 3.1
2016-May-03 15:34N 51°17' E 003°50'4 4.4
2016-May-03 14:34N 51°13' E 003°48'3 2.7
2016-May-03 13:31N 51°10' E 003°47'0 0.0
2016-May-03 12:31N 51°10' E 003°47'0 0.0
2016-May-03 11:31N 51°10' E 003°47'0 0.0
2016-May-03 10:31N 51°10' E 003°47'0 0.0
2016-May-03 09:31N 51°10' E 003°47'0 0.0
2016-May-03 08:28N 51°10' E 003°47'0 0.0
2016-May-03 07:28N 51°10' E 003°47'0 0.0
2016-May-03 06:31N 51°10' E 003°47'0 0.0
2016-May-03 05:31N 51°10' E 003°47'0 0.0
2016-May-03 04:33N 51°10' E 003°47'0 0.0
2016-May-03 03:33N 51°10' E 003°47'0 0.0
2016-May-03 02:33N 51°10' E 003°47'0 0.0
2016-May-03 01:33N 51°10' E 003°47'0 0.0
2016-May-03 00:33N 51°10' E 003°47'0 0.0
2016-May-02 23:33N 51°10' E 003°47'1 1.0
2016-May-02 22:34N 51°11' E 003°48'8 7.6
2016-May-02 21:33N 51°18' E 003°50'4 4.2
2016-May-02 20:34N 51°22' E 003°46'1110.9
2016-May-02 19:33N 51°25' E 003°29'1111.5
2016-May-02 18:34N 51°23' E 003°11'10 9.7
2016-May-02 17:33N 51°21' E 002°56'9 8.9
2016-May-02 16:33N 51°21' E 002°41'8 8.1
2016-May-02 15:33N 51°21' E 002°29'8 8.5
2016-May-02 14:34N 51°17' E 002°17'9 9.0
2016-May-02 13:34N 51°13' E 002°04'9 9.3
2016-May-02 12:34N 51°08' E 001°52'10 9.7
2016-May-02 11:34N 51°01' E 001°40'1110.5
2016-May-02 10:33N 50°53' E 001°29'5110.0
2016-May-02 05:31N 50°24' E 000°25'1111.2
2016-May-02 04:33N 50°22' E 000°08'1211.5
2016-May-02 03:32N 50°20' W 000°10'1111.5
2016-May-02 02:33N 50°19' W 000°28'77 9.0
2016-May-01 18:04N 50°12' W 002°27'810.0
2016-May-01 17:17N 50°12' W 002°40'810.3
2016-May-01 16:34N 50°11' W 002°51'1010.5
2016-May-01 15:33N 50°09' W 003°08'1110.6
2016-May-01 14:34N 50°07' W 003°24'1110.5
2016-May-01 13:34N 50°05' W 003°40'1010.5
2016-May-01 12:34N 50°03' W 003°56'1010.3
2016-May-01 11:33N 50°00' W 004°12'1010.2
2016-May-01 10:34N 49°59' W 004°27'1110.1
2016-May-01 09:25N 49°56' W 004°44'11 9.9
2016-May-01 08:16N 49°54' W 005°02'20 9.5
2016-May-01 06:08N 49°55' W 005°33'17 9.4
2016-May-01 04:23N 49°56' W 005°59'9 9.6
2016-May-01 03:27N 50°05' W 005°60'1010.1
2016-May-01 02:29N 50°15' W 005°60'1110.0
2016-May-01 01:24N 50°25' W 005°60'9 9.7
2016-May-01 00:30N 50°34' W 005°59'183 9.5
2016-Apr-30 05:23N 53°37' W 006°03'810.2
2016-Apr-30 04:33N 53°43' W 006°12'4 0.1
2016-Apr-28 18:14N 53°43' W 006°18'0 0.0
2016-Apr-28 17:28N 53°43' W 006°18'0 0.0
2016-Apr-28 15:33N 53°43' W 006°18'0 0.0
2016-Apr-28 14:33N 53°43' W 006°18'4 0.2
2016-Apr-27 12:32N 53°44' W 006°11'0 0.1
2016-Apr-27 11:17N 53°44' W 006°11'0 0.0
2016-Apr-27 10:11N 53°44' W 006°11'0 0.0
2016-Apr-27 09:29N 53°44' W 006°11'0 0.0
2016-Apr-27 01:29N 53°44' W 006°11'0 0.0
2016-Apr-27 00:23N 53°44' W 006°11'0 0.0
2016-Apr-26 23:20N 53°44' W 006°11'0 0.1
2016-Apr-26 22:32N 53°44' W 006°11'  
Track history (hours):
 
Tides and Currents Weather Stations Pressure Air Temp Water Temp Dewpoint Dewpoint Depression Visibility Wind Speed Wind Dir Waves Ship Positions

Wilson Algeciras

Last reported at 2016-May-06 18:33 UTC. Time now 2016-May-06 18:45 UTC.
Position N 48°21' W 006°13'.

Length 88 m; draft 5.3 m.

Type: Ship. MMSI: 248689000.

Date/timePositionNaut miles runAvg speedWind from/ knotsBaromVisibWave heightAir tempDewpointWater temp
2016-May-06 18:33N 48°21' W 006°13'10 9.5
2016-May-06 17:33N 48°29' W 006°06'9 8.8
2016-May-06 16:33N 48°37' W 005°59'8 7.9
2016-May-06 15:33N 48°44' W 005°54'7 7.3
2016-May-06 14:33N 48°50' W 005°48'7 7.3
2016-May-06 13:33N 48°55' W 005°40'8 8.4
2016-May-06 12:33N 48°60' W 005°29'9 9.4
2016-May-06 11:33N 49°04' W 005°17'1410.9
2016-May-06 10:16N 49°11' W 004°58'811.5
2016-May-06 09:33N 49°16' W 004°48'1111.2
2016-May-06 08:33N 49°22' W 004°33'1010.4
2016-May-06 07:33N 49°27' W 004°19'9 9.2
2016-May-06 06:33N 49°32' W 004°07'8 8.1
2016-May-06 05:33N 49°36' W 003°57'8 7.6
2016-May-06 04:26N 49°40' W 003°45'7 7.7
2016-May-06 03:33N 49°44' W 003°36'9 8.7
2016-May-06 02:33N 49°48' W 003°25'1210.4
2016-May-06 01:25N 49°55' W 003°09'1012.0
2016-May-06 00:33N 49°60' W 002°56'1212.4
2016-May-05 23:33N 50°03' W 002°37'1211.5
2016-May-05 22:33N 50°07' W 002°20'10 9.8
2016-May-05 21:33N 50°09' W 002°05'8 7.8
2016-May-05 20:33N 50°11' W 001°53'6 6.5
2016-May-05 19:33N 50°13' W 001°44'6 5.9
2016-May-05 18:33N 50°15' W 001°35'6 6.1
2016-May-05 17:33N 50°16' W 001°25'8 7.7
2016-May-05 16:33N 50°18' W 001°14'1010.0
2016-May-05 15:33N 50°21' W 000°59'1311.9
2016-May-05 14:28N 50°24' W 000°39'1112.3
2016-May-05 13:33N 50°28' W 000°22'1211.8
2016-May-05 12:33N 50°31' W 000°04'1111.2
2016-May-05 11:33N 50°34' E 000°13'1010.3
2016-May-05 10:33N 50°37' E 000°28'28 8.8
2016-May-05 07:24N 50°52' E 001°04'910.2
2016-May-05 06:33N 50°58' E 001°15'1212.1
2016-May-05 05:34N 51°05' E 001°30'1212.4
2016-May-05 04:33N 51°13' E 001°45'1110.5
2016-May-05 03:33N 51°21' E 001°56'8 8.2
2016-May-05 02:33N 51°23' E 002°09'9 9.3
2016-May-05 01:33N 51°22' E 002°23'9 8.8
2016-May-05 00:33N 51°23' E 002°37'8 8.1
2016-May-04 23:33N 51°22' E 002°50'9 8.2
2016-May-04 22:31N 51°22' E 003°04'7 7.2
2016-May-04 21:33N 51°24' E 003°15'8 8.1
2016-May-04 20:33N 51°25' E 003°28'8 8.1
2016-May-04 19:34N 51°25' E 003°41'9 8.7
2016-May-04 18:33N 51°22' E 003°54'6 5.9
2016-May-04 17:33N 51°23' E 004°03'9 8.9
2016-May-04 16:33N 51°20' E 004°16'4 3.6
2016-May-04 15:33N 51°17' E 004°20'1 1.2
2016-May-04 14:32N 51°16' E 004°22'0 0.0
2016-May-04 13:32N 51°16' E 004°22'0 0.0
2016-May-04 12:29N 51°16' E 004°22'0 0.0
2016-May-04 11:32N 51°16' E 004°22'0 0.0
2016-May-04 10:33N 51°16' E 004°22'0 0.0
2016-May-04 09:33N 51°16' E 004°22'0 0.0
2016-May-04 08:33N 51°16' E 004°22'0 0.0
2016-May-04 07:33N 51°16' E 004°22'0 0.0
2016-May-04 06:33N 51°16' E 004°22'0 0.0
2016-May-04 05:33N 51°16' E 004°22'0 0.0
2016-May-04 04:33N 51°16' E 004°22'0 0.0
2016-May-04 03:33N 51°16' E 004°22'0 0.0
2016-May-04 02:33N 51°16' E 004°22'0 0.0
2016-May-04 01:33N 51°16' E 004°22'0 0.0
2016-May-04 00:33N 51°16' E 004°22'0 0.0
2016-May-03 23:33N 51°16' E 004°22'0 0.0
2016-May-03 22:33N 51°16' E 004°22'0 0.0
2016-May-03 21:33N 51°16' E 004°22'1 1.1
2016-May-03 20:34N 51°17' E 004°20'3 2.7
2016-May-03 19:33N 51°18' E 004°17'8 7.9
2016-May-03 18:33N 51°22' E 004°06'6 5.8
2016-May-03 17:34N 51°23' E 003°56'5 5.4
2016-May-03 16:34N 51°20' E 003°49'3 3.1
2016-May-03 15:34N 51°17' E 003°50'4 4.4
2016-May-03 14:34N 51°13' E 003°48'3 2.7
2016-May-03 13:31N 51°10' E 003°47'0 0.0
2016-May-03 12:31N 51°10' E 003°47'0 0.0
2016-May-03 11:31N 51°10' E 003°47'0 0.0
2016-May-03 10:31N 51°10' E 003°47'0 0.0
2016-May-03 09:31N 51°10' E 003°47'0 0.0
2016-May-03 08:28N 51°10' E 003°47'0 0.0
2016-May-03 07:28N 51°10' E 003°47'0 0.0
2016-May-03 06:31N 51°10' E 003°47'0 0.0
2016-May-03 05:31N 51°10' E 003°47'0 0.0
2016-May-03 04:33N 51°10' E 003°47'0 0.0
2016-May-03 03:33N 51°10' E 003°47'0 0.0
2016-May-03 02:33N 51°10' E 003°47'0 0.0
2016-May-03 01:33N 51°10' E 003°47'0 0.0
2016-May-03 00:33N 51°10' E 003°47'0 0.0
2016-May-02 23:33N 51°10' E 003°47'1 1.0
2016-May-02 22:34N 51°11' E 003°48'8 7.6
2016-May-02 21:33N 51°18' E 003°50'4 4.2
2016-May-02 20:34N 51°22' E 003°46'1110.9
2016-May-02 19:33N 51°25' E 003°29'1111.5
2016-May-02 18:34N 51°23' E 003°11'10 9.7
2016-May-02 17:33N 51°21' E 002°56'9 8.9
2016-May-02 16:33N 51°21' E 002°41'8 8.1
2016-May-02 15:33N 51°21' E 002°29'8 8.5
2016-May-02 14:34N 51°17' E 002°17'9 9.0
2016-May-02 13:34N 51°13' E 002°04'9 9.3
2016-May-02 12:34N 51°08' E 001°52'10 9.7
2016-May-02 11:34N 51°01' E 001°40'1110.5
2016-May-02 10:33N 50°53' E 001°29'5110.0
2016-May-02 05:31N 50°24' E 000°25'1111.2
2016-May-02 04:33N 50°22' E 000°08'1211.5
2016-May-02 03:32N 50°20' W 000°10'1111.5
2016-May-02 02:33N 50°19' W 000°28'77 9.0
2016-May-01 18:04N 50°12' W 002°27'810.0
2016-May-01 17:17N 50°12' W 002°40'810.3
2016-May-01 16:34N 50°11' W 002°51'1010.5
2016-May-01 15:33N 50°09' W 003°08'1110.6
2016-May-01 14:34N 50°07' W 003°24'1110.5
2016-May-01 13:34N 50°05' W 003°40'1010.5
2016-May-01 12:34N 50°03' W 003°56'1010.3
2016-May-01 11:33N 50°00' W 004°12'1010.2
2016-May-01 10:34N 49°59' W 004°27'1110.1
2016-May-01 09:25N 49°56' W 004°44'11 9.9
2016-May-01 08:16N 49°54' W 005°02'20 9.5
2016-May-01 06:08N 49°55' W 005°33'17 9.4
2016-May-01 04:23N 49°56' W 005°59'9 9.6
2016-May-01 03:27N 50°05' W 005°60'1010.1
2016-May-01 02:29N 50°15' W 005°60'1110.0
2016-May-01 01:24N 50°25' W 005°60'9 9.7
2016-May-01 00:30N 50°34' W 005°59'183 9.5
2016-Apr-30 05:23N 53°37' W 006°03'810.2
2016-Apr-30 04:33N 53°43' W 006°12'4 0.1
2016-Apr-28 18:14N 53°43' W 006°18'0 0.0
2016-Apr-28 17:28N 53°43' W 006°18'0 0.0
2016-Apr-28 15:33N 53°43' W 006°18'0 0.0
2016-Apr-28 14:33N 53°43' W 006°18'4 0.2
2016-Apr-27 12:32N 53°44' W 006°11'0 0.1
2016-Apr-27 11:17N 53°44' W 006°11'0 0.0
2016-Apr-27 10:11N 53°44' W 006°11'0 0.0
2016-Apr-27 09:29N 53°44' W 006°11'0 0.0
2016-Apr-27 01:29N 53°44' W 006°11'0 0.0
2016-Apr-27 00:23N 53°44' W 006°11'0 0.0
2016-Apr-26 23:20N 53°44' W 006°11'0 0.1
2016-Apr-26 22:32N 53°44' W 006°11'  

Dump ship's entire track history